createdAt,value
2018-05-02T00:00:41.007Z,5.80
2018-05-02T00:04:43.527Z,5.80
2018-05-02T00:08:46.038Z,5.80
2018-05-02T00:12:48.558Z,5.80
2018-05-02T00:16:51.084Z,5.70
2018-05-02T00:20:53.610Z,5.70
2018-05-02T00:24:56.896Z,5.60
2018-05-02T00:28:59.404Z,5.50
2018-05-02T00:33:02.691Z,5.50
2018-05-02T00:37:05.990Z,5.40
2018-05-02T00:41:08.512Z,5.40
2018-05-02T00:45:11.040Z,5.40
2018-05-02T00:49:17.491Z,5.30
2018-05-02T00:53:20.019Z,5.30
2018-05-02T00:57:22.544Z,5.20
2018-05-02T01:01:25.071Z,5.20
2018-05-02T01:05:27.599Z,5.10
2018-05-02T01:09:30.099Z,5.10
2018-05-02T01:13:32.618Z,5.00
2018-05-02T01:17:35.136Z,5.00
2018-05-02T01:21:38.431Z,4.90
2018-05-02T01:25:40.956Z,4.80
2018-05-02T01:29:43.461Z,4.90
2018-05-02T01:33:45.985Z,4.80
2018-05-02T01:37:48.515Z,4.80
2018-05-02T01:41:51.048Z,4.80
2018-05-02T01:45:53.572Z,4.80
2018-05-02T01:49:56.075Z,4.80
2018-05-02T01:53:58.612Z,4.80
2018-05-02T01:58:01.904Z,4.80
2018-05-02T02:02:04.435Z,4.70
2018-05-02T02:06:07.019Z,4.80
2018-05-02T02:10:09.524Z,4.70
2018-05-02T02:14:12.051Z,4.70
2018-05-02T02:18:15.339Z,4.70
2018-05-02T02:22:17.863Z,4.60
2018-05-02T02:26:20.387Z,4.60
2018-05-02T02:30:22.894Z,4.60
2018-05-02T02:34:25.423Z,4.60
2018-05-02T02:38:27.963Z,4.50
2018-05-02T02:42:30.486Z,4.50
2018-05-02T02:46:33.012Z,4.50
2018-05-02T02:50:35.510Z,4.50
2018-05-02T02:54:38.051Z,4.40
2018-05-02T02:58:40.571Z,4.40
2018-05-02T03:02:43.108Z,4.40
2018-05-02T03:06:45.633Z,4.40
2018-05-02T03:10:48.767Z,4.30
2018-05-02T03:14:51.304Z,4.30
2018-05-02T03:18:53.826Z,4.20
2018-05-02T03:22:56.346Z,4.20
2018-05-02T03:26:58.916Z,4.10
2018-05-02T03:31:01.388Z,4.10
2018-05-02T03:35:03.911Z,4.10
2018-05-02T03:39:06.440Z,4.00
2018-05-02T03:43:08.970Z,4.00
2018-05-02T03:47:11.504Z,4.00
2018-05-02T03:51:14.008Z,4.00
2018-05-02T03:55:16.534Z,3.90
2018-05-02T03:59:19.058Z,3.90
2018-05-02T04:03:33.446Z,3.90
2018-05-02T04:07:35.975Z,3.90
2018-05-02T04:11:38.492Z,3.90
2018-05-02T04:15:41.027Z,3.90
2018-05-02T04:19:43.548Z,3.90
2018-05-02T04:23:47.135Z,3.90
2018-05-02T04:27:49.694Z,3.90
2018-05-02T04:31:52.967Z,4.00
2018-05-02T04:35:55.488Z,3.90
2018-05-02T04:39:58.010Z,4.10
2018-05-02T04:44:00.531Z,4.10
2018-05-02T04:48:03.050Z,4.10
2018-05-02T04:52:05.579Z,4.20
2018-05-02T04:56:08.107Z,4.20
2018-05-02T05:00:11.395Z,4.30
2018-05-02T05:04:14.678Z,4.40
2018-05-02T05:08:17.206Z,4.30
2018-05-02T05:12:19.800Z,4.40
2018-05-02T05:16:22.250Z,4.50
2018-05-02T05:20:25.547Z,4.70
2018-05-02T05:24:28.855Z,4.80
2018-05-02T05:28:32.154Z,4.80
2018-05-02T05:32:35.429Z,4.90
2018-05-02T05:36:37.964Z,4.90
2018-05-02T05:40:40.485Z,5.10
2018-05-02T05:44:43.016Z,5.20
2018-05-02T05:48:46.310Z,5.50
2018-05-02T05:52:48.823Z,5.40
2018-05-02T05:56:51.353Z,5.60
2018-05-02T06:00:53.924Z,5.70
2018-05-02T06:04:56.420Z,5.90
2018-05-02T06:08:58.943Z,6.00
2018-05-02T06:13:02.220Z,6.30
2018-05-02T06:17:04.747Z,6.20
2018-05-02T06:21:07.267Z,6.40
2018-05-02T06:25:09.803Z,6.60
2018-05-02T06:29:13.179Z,6.80
2018-05-02T06:33:15.682Z,6.90
2018-05-02T06:37:18.987Z,7.20
2018-05-02T06:41:22.275Z,7.40
2018-05-02T06:45:24.800Z,7.40
2018-05-02T06:49:27.318Z,7.60
2018-05-02T06:53:29.819Z,7.80
2018-05-02T06:57:32.355Z,8.00
2018-05-02T07:01:34.886Z,8.20
2018-05-02T07:05:37.419Z,8.40
2018-05-02T07:09:39.950Z,8.60
2018-05-02T07:13:42.459Z,8.90
2018-05-02T07:17:44.993Z,9.10
2018-05-02T07:21:47.520Z,9.30
2018-05-02T07:25:50.047Z,9.50
2018-05-02T07:29:52.575Z,9.70
2018-05-02T07:33:55.074Z,9.90
2018-05-02T07:37:57.612Z,10.10
2018-05-02T07:42:00.138Z,10.40
2018-05-02T07:46:02.671Z,10.60
2018-05-02T07:50:05.203Z,10.80
2018-05-02T07:54:07.739Z,11.00
2018-05-02T07:58:10.270Z,11.30
2018-05-02T08:02:12.796Z,11.50
2018-05-02T08:06:15.328Z,11.70
2018-05-02T08:10:17.868Z,11.90
2018-05-02T08:14:20.419Z,12.10
2018-05-02T08:18:22.927Z,12.30
2018-05-02T08:22:26.218Z,12.70
2018-05-02T08:26:29.531Z,13.00
2018-05-02T08:30:32.836Z,13.20
2018-05-02T08:34:36.130Z,13.40
2018-05-02T08:38:39.402Z,13.60
2018-05-02T08:42:41.932Z,13.50
2018-05-02T08:46:44.470Z,13.80
2018-05-02T08:50:46.999Z,14.00
2018-05-02T08:54:50.286Z,14.40
2018-05-02T08:58:53.557Z,14.50
2018-05-02T09:02:56.095Z,14.40
2018-05-02T09:06:58.632Z,14.60
2018-05-02T09:11:01.163Z,14.70
2018-05-02T09:15:03.704Z,14.80
2018-05-02T09:19:06.213Z,14.90
2018-05-02T09:23:09.511Z,15.20
2018-05-02T09:27:12.803Z,15.30
2018-05-02T09:31:15.336Z,15.30
2018-05-02T09:35:17.870Z,15.50
2018-05-02T09:39:20.402Z,15.70
2018-05-02T09:43:22.936Z,15.90
2018-05-02T09:47:25.480Z,16.20
2018-05-02T09:51:28.011Z,16.40
2018-05-02T09:55:30.543Z,16.70
2018-05-02T09:59:33.050Z,16.90
2018-05-02T10:03:35.583Z,17.10
2018-05-02T10:07:38.885Z,17.60
2018-05-02T10:11:42.180Z,17.70
2018-05-02T10:15:44.709Z,17.70
2018-05-02T10:19:47.232Z,17.90
2018-05-02T10:23:49.776Z,18.10
2018-05-02T10:27:52.307Z,18.20
2018-05-02T10:31:54.839Z,18.30
2018-05-02T10:35:57.375Z,18.50
2018-05-02T10:39:59.879Z,18.60
2018-05-02T10:44:03.170Z,18.70
2018-05-02T10:48:05.708Z,18.60
2018-05-02T10:52:08.234Z,18.80
2018-05-02T10:56:10.770Z,18.90
2018-05-02T11:00:13.280Z,18.90
2018-05-02T11:04:17.089Z,19.00
2018-05-02T11:08:19.697Z,19.10
2018-05-02T11:12:22.176Z,19.10
2018-05-02T11:16:24.709Z,19.20
2018-05-02T11:20:27.231Z,19.20
2018-05-02T11:24:29.766Z,19.30
2018-05-02T11:28:33.079Z,19.40
2018-05-02T11:32:35.610Z,19.40
2018-05-02T11:36:38.144Z,19.50
2018-05-02T11:40:40.685Z,19.60
2018-05-02T11:44:43.343Z,19.80
2018-05-02T11:48:45.920Z,19.90
2018-05-02T11:52:48.467Z,20.00
2018-05-02T11:56:50.995Z,20.00
2018-05-02T12:00:53.505Z,20.10
2018-05-02T12:04:56.034Z,20.20
2018-05-02T12:08:59.322Z,20.40
2018-05-02T12:13:02.627Z,20.60
2018-05-02T12:17:05.928Z,20.70
2018-05-02T12:21:09.211Z,20.80
2018-05-02T12:25:11.734Z,20.70
2018-05-02T12:29:14.264Z,20.90
2018-05-02T12:33:16.866Z,21.10
2018-05-02T12:37:20.239Z,21.30
2018-05-02T12:41:22.761Z,21.20
2018-05-02T12:45:25.299Z,21.40
2018-05-02T12:49:27.836Z,21.50
2018-05-02T12:53:30.368Z,21.50
2018-05-02T12:57:32.899Z,21.60
2018-05-02T13:01:35.409Z,21.50
2018-05-02T13:05:37.944Z,21.50
2018-05-02T13:09:40.482Z,21.50
2018-05-02T13:13:43.011Z,21.50
2018-05-02T13:17:45.556Z,21.50
2018-05-02T13:21:48.064Z,21.60
2018-05-02T13:25:50.595Z,21.50
2018-05-02T13:29:53.118Z,21.40
2018-05-02T13:33:55.643Z,21.40
2018-05-02T13:37:58.171Z,21.30
2018-05-02T13:42:01.439Z,21.10
2018-05-02T13:46:03.973Z,21.10
2018-05-02T13:50:06.503Z,21.10
2018-05-02T13:54:09.065Z,21.00
2018-05-02T13:58:11.595Z,20.90
2018-05-02T14:02:14.107Z,20.80
2018-05-02T14:06:16.638Z,20.80
2018-05-02T14:10:19.167Z,20.60
2018-05-02T14:14:22.469Z,20.50
2018-05-02T14:18:25.765Z,20.40
2018-05-02T14:22:29.041Z,20.40
2018-05-02T14:26:31.575Z,20.40
2018-05-02T14:30:34.099Z,20.40
2018-05-02T14:34:36.653Z,20.30
2018-05-02T14:38:39.187Z,20.30
2018-05-02T14:42:41.739Z,20.30
2018-05-02T14:46:44.247Z,20.30
2018-05-02T14:50:46.791Z,20.30
2018-05-02T14:54:49.326Z,20.30
2018-05-02T14:58:51.860Z,20.30
2018-05-02T15:02:54.397Z,20.30
2018-05-02T15:06:56.911Z,20.30
2018-05-02T15:10:59.443Z,20.20
2018-05-02T15:15:01.980Z,20.30
2018-05-02T15:19:04.520Z,20.20
2018-05-02T15:23:07.052Z,20.20
2018-05-02T15:27:09.559Z,20.10
2018-05-02T15:31:12.083Z,20.10
2018-05-02T15:35:14.613Z,20.00
2018-05-02T15:39:17.153Z,19.90
2018-05-02T15:43:19.681Z,19.90
2018-05-02T15:47:22.195Z,19.90
2018-05-02T15:51:24.736Z,19.90
2018-05-02T15:55:28.031Z,19.90
2018-05-02T15:59:31.331Z,19.80
2018-05-02T16:03:34.636Z,19.70
2018-05-02T16:07:37.913Z,19.60
2018-05-02T16:11:40.448Z,19.50
2018-05-02T16:15:42.981Z,19.60
2018-05-02T16:19:45.515Z,19.50
2018-05-02T16:23:48.057Z,19.50
2018-05-02T16:27:50.651Z,19.40
2018-05-02T16:31:53.124Z,19.40
2018-05-02T16:35:55.650Z,19.30
2018-05-02T16:39:58.188Z,19.20
2018-05-02T16:44:00.719Z,19.10
2018-05-02T16:48:03.224Z,19.00
2018-05-02T16:52:05.753Z,18.90
2018-05-02T16:56:09.069Z,18.80
2018-05-02T17:00:12.373Z,18.70
2018-05-02T17:04:14.973Z,18.70
2018-05-02T17:08:17.507Z,18.60
2018-05-02T17:12:20.032Z,18.60
2018-05-02T17:16:23.331Z,18.50
2018-05-02T17:20:26.635Z,18.40
2018-05-02T17:24:29.951Z,18.30
2018-05-02T17:28:32.465Z,18.20
2018-05-02T17:32:34.999Z,18.20
2018-05-02T17:36:37.532Z,18.10
2018-05-02T17:40:40.075Z,18.10
2018-05-02T17:44:43.379Z,17.90
2018-05-02T17:48:46.676Z,17.70
2018-05-02T17:52:50.048Z,17.70
2018-05-02T17:56:52.552Z,17.60
2018-05-02T18:00:55.082Z,17.50
2018-05-02T18:04:57.635Z,17.40
2018-05-02T18:09:00.916Z,17.20
2018-05-02T18:13:03.455Z,17.10
2018-05-02T18:17:06.003Z,17.10
2018-05-02T18:21:08.540Z,17.00
2018-05-02T18:25:11.085Z,16.90
2018-05-02T18:29:14.378Z,16.70
2018-05-02T18:33:17.770Z,16.60
2018-05-02T18:37:20.239Z,16.50
2018-05-02T18:41:22.784Z,16.60
2018-05-02T18:45:25.328Z,16.40
2018-05-02T18:49:27.839Z,16.30
2018-05-02T18:53:31.139Z,16.10
2018-05-02T18:57:34.435Z,16.00
2018-05-02T19:01:36.966Z,16.00
2018-05-02T19:05:39.491Z,15.90
2018-05-02T19:13:56.637Z,15.70
2018-05-02T19:18:04.727Z,15.60
2018-05-02T19:22:07.259Z,15.40
2018-05-02T19:26:16.155Z,15.20
2018-05-02T19:30:18.663Z,15.10
2018-05-02T19:34:21.760Z,15.10
2018-05-02T19:38:25.077Z,14.90
2018-05-02T19:42:33.931Z,14.70
2018-05-02T19:46:36.472Z,14.70
2018-05-02T19:50:39.028Z,14.60
2018-05-02T19:54:41.535Z,14.50
2018-05-02T19:58:44.076Z,14.50
2018-05-02T20:02:52.185Z,14.30
2018-05-02T20:06:54.729Z,14.20
2018-05-02T20:11:03.723Z,14.00
2018-05-02T20:15:06.239Z,14.00
2018-05-02T20:19:08.807Z,13.90
2018-05-02T20:23:11.336Z,13.80
2018-05-02T20:27:14.627Z,13.60
2018-05-02T20:31:17.159Z,13.60
2018-05-02T20:35:19.686Z,13.60
2018-05-02T20:39:22.287Z,13.50
2018-05-02T20:43:25.633Z,13.40
2018-05-02T20:47:28.207Z,13.40
2018-05-02T20:51:30.782Z,13.40
2018-05-02T20:55:33.355Z,13.30
2018-05-02T20:59:36.754Z,13.20
2018-05-02T21:03:40.096Z,13.10
2018-05-02T21:07:42.680Z,13.00
2018-05-02T21:11:45.215Z,13.10
2018-05-02T21:15:47.751Z,13.00
2018-05-02T21:19:50.287Z,12.90
2018-05-02T21:23:54.056Z,12.90
2018-05-02T21:27:56.732Z,12.80
2018-05-02T21:32:01.120Z,12.70
2018-05-02T21:36:03.668Z,12.70
2018-05-02T21:40:06.214Z,12.60
2018-05-02T21:44:09.748Z,12.50
2018-05-02T21:48:12.277Z,12.50
2018-05-02T21:52:14.804Z,12.40
2018-05-02T21:56:17.346Z,12.30
2018-05-02T22:00:20.925Z,12.30
2018-05-02T22:04:23.439Z,12.20
2018-05-02T22:08:25.972Z,12.10
2018-05-02T22:12:28.495Z,12.10
2018-05-02T22:16:31.024Z,12.00
2018-05-02T22:20:33.567Z,12.00
2018-05-02T22:24:36.073Z,11.90
2018-05-02T22:28:38.603Z,11.90
2018-05-02T22:32:41.131Z,11.80
2018-05-02T22:36:43.664Z,11.80
2018-05-02T22:40:46.187Z,11.70
2018-05-02T22:44:48.701Z,11.70
2018-05-02T22:48:52.003Z,11.60
2018-05-02T22:52:54.534Z,11.60
2018-05-02T22:56:57.090Z,11.60
2018-05-02T23:00:59.623Z,11.60
2018-05-02T23:05:02.151Z,11.60
2018-05-02T23:09:05.443Z,11.60
2018-05-02T23:13:07.967Z,11.50
2018-05-02T23:17:10.490Z,11.60
2018-05-02T23:21:13.008Z,11.50
2018-05-02T23:25:16.299Z,11.50
2018-05-02T23:29:19.575Z,11.60
2018-05-02T23:33:22.102Z,11.50
2018-05-02T23:37:25.391Z,11.50
2018-05-02T23:41:28.679Z,11.50
2018-05-02T23:45:31.207Z,11.50
2018-05-02T23:49:33.707Z,11.50
2018-05-02T23:53:36.235Z,11.50
2018-05-02T23:57:38.756Z,11.50
